createdAt,value
2022-08-29T00:01:45.577Z,17.90
2022-08-29T00:04:19.475Z,17.80
2022-08-29T00:06:52.860Z,17.80
2022-08-29T00:09:27.670Z,17.80
2022-08-29T00:12:01.056Z,17.70
2022-08-29T00:14:34.512Z,17.70
2022-08-29T00:17:07.987Z,17.70
2022-08-29T00:19:41.364Z,17.70
2022-08-29T00:22:14.859Z,17.70
2022-08-29T00:24:49.626Z,17.70
2022-08-29T00:27:23.202Z,17.70
2022-08-29T00:29:56.610Z,17.70
2022-08-29T00:32:35.160Z,17.70
2022-08-29T00:35:11.093Z,17.60
2022-08-29T00:37:44.882Z,17.70
2022-08-29T00:40:23.591Z,17.70
2022-08-29T00:42:56.987Z,17.70
2022-08-29T00:45:31.457Z,17.70
2022-08-29T00:48:09.647Z,17.70
2022-08-29T00:50:46.329Z,17.70
2022-08-29T00:53:24.773Z,17.70
2022-08-29T00:56:00.864Z,17.60
2022-08-29T00:58:39.481Z,17.60
2022-08-29T01:01:13.236Z,17.60
2022-08-29T01:03:46.709Z,17.50
2022-08-29T01:06:22.484Z,17.50
2022-08-29T01:08:58.160Z,17.50
2022-08-29T01:11:51.333Z,17.50
2022-08-29T01:14:27.212Z,17.40
2022-08-29T01:17:01.698Z,17.30
2022-08-29T01:19:47.994Z,17.30
2022-08-29T01:22:35.211Z,17.20
2022-08-29T01:25:12.727Z,17.20
2022-08-29T01:27:49.993Z,17.20
2022-08-29T01:30:23.695Z,17.10
2022-08-29T01:32:58.057Z,17.10
2022-08-29T01:35:31.837Z,17.10
2022-08-29T01:38:07.190Z,17.00
2022-08-29T01:40:42.123Z,17.00
2022-08-29T01:43:15.638Z,17.00
2022-08-29T01:45:49.040Z,17.00
2022-08-29T01:48:23.443Z,17.00
2022-08-29T01:50:58.288Z,17.00
2022-08-29T01:53:31.629Z,17.00
2022-08-29T01:56:13.741Z,17.00
2022-08-29T01:58:49.276Z,17.00
2022-08-29T02:01:25.586Z,17.00
2022-08-29T02:04:01.340Z,17.00
2022-08-29T02:06:36.188Z,17.00
2022-08-29T02:09:10.380Z,17.00
2022-08-29T02:11:46.517Z,17.00
2022-08-29T02:14:20.126Z,17.00
2022-08-29T02:16:53.514Z,17.00
2022-08-29T02:19:28.614Z,17.00
2022-08-29T02:22:02.905Z,17.00
2022-08-29T02:24:36.610Z,17.00
2022-08-29T02:27:12.671Z,17.00
2022-08-29T02:29:46.408Z,17.00
2022-08-29T02:32:19.732Z,17.00
2022-08-29T02:34:53.163Z,17.00
2022-08-29T02:37:26.662Z,17.00
2022-08-29T02:40:00.324Z,17.00
2022-08-29T02:42:35.155Z,17.00
2022-08-29T02:45:09.644Z,17.00
2022-08-29T02:47:45.544Z,17.00
2022-08-29T02:50:19.150Z,17.00
2022-08-29T02:52:53.367Z,17.00
2022-08-29T02:55:27.525Z,16.90
2022-08-29T02:58:02.547Z,17.00
2022-08-29T03:00:37.109Z,17.00
2022-08-29T03:03:11.135Z,17.00
2022-08-29T03:05:44.696Z,16.90
2022-08-29T03:08:18.966Z,16.90
2022-08-29T03:10:52.401Z,17.00
2022-08-29T03:13:27.339Z,17.00
2022-08-29T03:16:02.419Z,17.00
2022-08-29T03:18:35.924Z,17.10
2022-08-29T03:21:16.354Z,17.10
2022-08-29T03:23:50.766Z,17.10
2022-08-29T03:26:25.253Z,17.20
2022-08-29T03:28:59.988Z,17.20
2022-08-29T03:31:33.673Z,17.20
2022-08-29T03:34:07.184Z,17.20
2022-08-29T03:36:40.672Z,17.30
2022-08-29T03:39:14.056Z,17.30
2022-08-29T03:41:47.660Z,17.30
2022-08-29T03:44:22.631Z,17.40
2022-08-29T03:46:56.746Z,17.40
2022-08-29T03:49:30.103Z,17.40
2022-08-29T03:52:05.137Z,17.40
2022-08-29T03:54:38.756Z,17.40
2022-08-29T03:57:12.323Z,17.50
2022-08-29T03:59:48.291Z,17.50
2022-08-29T04:02:27.657Z,17.50
2022-08-29T04:05:10.094Z,17.60
2022-08-29T04:07:46.929Z,17.60
2022-08-29T04:10:24.247Z,17.60
2022-08-29T04:12:59.214Z,17.60
2022-08-29T04:15:34.108Z,17.60
2022-08-29T04:18:09.354Z,17.70
2022-08-29T04:20:45.858Z,17.70
2022-08-29T04:23:19.271Z,17.70
2022-08-29T04:26:02.977Z,17.80
2022-08-29T04:28:46.707Z,17.80
2022-08-29T04:31:22.235Z,17.80
2022-08-29T04:33:56.804Z,17.80
2022-08-29T04:36:30.595Z,17.80
2022-08-29T04:39:05.023Z,17.90
2022-08-29T04:41:39.808Z,17.90
2022-08-29T04:44:14.071Z,17.90
2022-08-29T04:46:48.945Z,18.00
2022-08-29T04:49:22.375Z,18.00
2022-08-29T04:51:55.757Z,18.00
2022-08-29T04:54:29.451Z,18.00
2022-08-29T04:57:03.655Z,18.10
2022-08-29T04:59:38.623Z,18.10
2022-08-29T05:02:13.645Z,18.10
2022-08-29T05:04:48.344Z,18.20
2022-08-29T05:07:22.506Z,18.20
2022-08-29T05:09:58.819Z,18.30
2022-08-29T05:12:33.774Z,18.30
2022-08-29T05:15:08.494Z,18.30
2022-08-29T05:17:43.590Z,18.40
2022-08-29T05:20:17.078Z,18.40
2022-08-29T05:22:50.485Z,18.40
2022-08-29T05:25:24.307Z,18.50
2022-08-29T05:27:57.872Z,18.50
2022-08-29T05:30:34.492Z,18.60
2022-08-29T05:33:10.154Z,18.60
2022-08-29T05:35:43.808Z,18.70
2022-08-29T05:38:17.612Z,18.70
2022-08-29T05:40:51.080Z,18.80
2022-08-29T05:43:24.899Z,18.80
2022-08-29T05:46:03.721Z,18.90
2022-08-29T05:48:42.373Z,18.90
2022-08-29T05:51:20.543Z,19.00
2022-08-29T05:53:53.979Z,19.10
2022-08-29T05:56:30.416Z,19.10
2022-08-29T05:59:03.980Z,19.10
2022-08-29T06:01:37.385Z,19.20
2022-08-29T06:04:12.115Z,19.30
2022-08-29T06:06:45.617Z,19.30
2022-08-29T06:09:19.022Z,19.40
2022-08-29T06:11:54.216Z,19.40
2022-08-29T06:14:28.952Z,19.50
2022-08-29T06:17:02.702Z,19.50
2022-08-29T06:19:39.582Z,19.60
2022-08-29T06:22:13.006Z,19.60
2022-08-29T06:24:46.513Z,19.70
2022-08-29T06:27:20.774Z,19.70
2022-08-29T06:29:54.220Z,19.80
2022-08-29T06:32:27.591Z,19.80
2022-08-29T06:35:02.545Z,19.80
2022-08-29T06:37:36.320Z,19.90
2022-08-29T06:40:11.120Z,19.90
2022-08-29T06:42:44.585Z,19.90
2022-08-29T06:45:18.428Z,20.00
2022-08-29T06:47:51.798Z,20.00
2022-08-29T06:50:26.561Z,20.00
2022-08-29T06:53:26.052Z,20.00
2022-08-29T06:55:53.343Z,20.00
2022-08-29T06:58:26.785Z,20.00
2022-08-29T07:01:00.534Z,20.00
2022-08-29T07:03:34.017Z,20.10
2022-08-29T07:06:09.446Z,20.20
2022-08-29T07:08:55.345Z,20.40
2022-08-29T07:11:31.823Z,20.40
2022-08-29T07:14:06.203Z,20.60
2022-08-29T07:16:40.274Z,20.70
2022-08-29T07:19:13.648Z,20.80
2022-08-29T07:21:49.530Z,20.90
2022-08-29T07:24:24.850Z,21.00
2022-08-29T07:26:58.479Z,21.00
2022-08-29T07:29:31.964Z,21.00
2022-08-29T07:32:05.634Z,21.10
2022-08-29T07:34:39.283Z,21.10
2022-08-29T07:37:14.191Z,21.10
2022-08-29T07:39:47.881Z,21.20
2022-08-29T07:42:21.337Z,21.30
2022-08-29T07:44:54.873Z,21.30
2022-08-29T07:47:29.011Z,21.30
2022-08-29T07:50:02.696Z,21.40
2022-08-29T07:52:37.877Z,21.50
2022-08-29T07:55:12.083Z,21.60
2022-08-29T07:57:46.618Z,21.70
2022-08-29T08:00:20.703Z,21.70
2022-08-29T08:02:54.503Z,21.70
2022-08-29T08:05:28.214Z,21.70
2022-08-29T08:08:08.684Z,21.70
2022-08-29T08:10:42.619Z,21.70
2022-08-29T08:13:16.313Z,21.60
2022-08-29T08:15:49.951Z,21.60
2022-08-29T08:18:23.479Z,21.70
2022-08-29T08:20:57.023Z,21.70
2022-08-29T08:23:32.410Z,21.70
2022-08-29T08:26:06.289Z,21.70
2022-08-29T08:28:41.719Z,21.60
2022-08-29T08:31:16.792Z,21.60
2022-08-29T08:33:50.266Z,21.60
2022-08-29T08:36:26.068Z,21.60
2022-08-29T08:39:01.750Z,21.60
2022-08-29T08:41:52.913Z,21.60
2022-08-29T08:44:50.756Z,21.60
2022-08-29T08:47:28.596Z,21.50
2022-08-29T08:50:05.960Z,21.40
2022-08-29T08:52:43.518Z,21.40
2022-08-29T08:55:28.652Z,21.40
2022-08-29T08:58:09.986Z,21.30
2022-08-29T09:00:51.689Z,21.30
2022-08-29T09:03:51.895Z,21.40
2022-08-29T09:06:37.520Z,21.40
2022-08-29T09:09:21.614Z,21.40
2022-08-29T09:12:12.286Z,21.50
2022-08-29T09:14:56.141Z,21.50
2022-08-29T09:17:37.136Z,21.60
2022-08-29T09:20:14.392Z,21.70
2022-08-29T09:23:04.574Z,21.70
2022-08-29T09:25:38.202Z,21.70
2022-08-29T09:28:13.049Z,21.70
2022-08-29T09:31:18.168Z,21.70
2022-08-29T09:33:54.675Z,21.70
2022-08-29T09:36:41.012Z,21.70
2022-08-29T09:39:19.050Z,21.60
2022-08-29T09:41:54.593Z,21.50
2022-08-29T09:44:32.221Z,21.50
2022-08-29T09:47:09.664Z,21.40
2022-08-29T09:50:01.544Z,21.30
2022-08-29T09:52:35.888Z,21.20
2022-08-29T09:55:25.975Z,21.20
2022-08-29T09:58:05.126Z,21.10
2022-08-29T10:00:44.027Z,21.10
2022-08-29T10:03:24.679Z,21.10
2022-08-29T10:06:08.898Z,21.00
2022-08-29T10:08:44.481Z,21.00
2022-08-29T10:11:26.343Z,21.10
2022-08-29T10:14:03.545Z,21.10
2022-08-29T10:16:46.684Z,21.10
2022-08-29T10:19:27.072Z,21.10
2022-08-29T10:22:16.089Z,21.20
2022-08-29T10:25:00.542Z,21.20
2022-08-29T10:27:43.207Z,21.30
2022-08-29T10:30:18.213Z,21.40
2022-08-29T10:33:20.034Z,21.50
2022-08-29T10:35:59.060Z,21.60
2022-08-29T10:38:46.353Z,21.60
2022-08-29T10:41:35.035Z,21.60
2022-08-29T10:44:20.524Z,21.70
2022-08-29T10:47:03.344Z,21.70
2022-08-29T10:49:51.127Z,21.70
2022-08-29T10:52:31.745Z,21.70
2022-08-29T10:55:13.269Z,21.70
2022-08-29T10:58:03.460Z,21.60
2022-08-29T11:00:43.527Z,21.60
2022-08-29T11:03:26.781Z,21.60
2022-08-29T11:06:06.068Z,21.70
2022-08-29T11:08:45.639Z,21.70
2022-08-29T11:11:22.536Z,21.70
2022-08-29T11:14:04.945Z,21.80
2022-08-29T11:16:44.455Z,21.80
2022-08-29T11:19:23.807Z,21.80
2022-08-29T11:22:05.558Z,21.80
2022-08-29T11:24:46.428Z,21.80
2022-08-29T11:27:31.569Z,21.70
2022-08-29T11:30:08.682Z,21.80
2022-08-29T11:32:51.385Z,21.80
2022-08-29T11:35:25.859Z,21.70
2022-08-29T11:38:25.457Z,21.60
2022-08-29T11:41:32.105Z,21.60
2022-08-29T11:44:16.032Z,21.70
2022-08-29T11:46:56.294Z,21.80
2022-08-29T11:49:38.215Z,21.90
2022-08-29T11:52:22.493Z,22.00
2022-08-29T11:55:27.243Z,22.00
2022-08-29T11:58:29.133Z,22.00
2022-08-29T12:01:04.554Z,22.00
2022-08-29T12:03:47.051Z,22.00
2022-08-29T12:06:30.766Z,22.00
2022-08-29T12:09:17.920Z,22.10
2022-08-29T12:12:13.725Z,22.20
2022-08-29T12:14:48.813Z,22.30
2022-08-29T12:18:01.280Z,22.40
2022-08-29T12:20:41.869Z,22.50
2022-08-29T12:23:25.239Z,22.50
2022-08-29T12:26:22.584Z,22.40
2022-08-29T12:29:00.118Z,22.50
2022-08-29T12:32:22.251Z,22.70
2022-08-29T12:35:21.365Z,23.00
2022-08-29T12:38:09.006Z,23.20
2022-08-29T12:41:05.889Z,23.40
2022-08-29T12:43:42.839Z,23.50
2022-08-29T12:46:24.653Z,23.70
2022-08-29T12:49:09.124Z,23.80
2022-08-29T12:51:44.542Z,23.90
2022-08-29T12:54:32.462Z,24.00
2022-08-29T12:57:09.675Z,24.10
2022-08-29T12:59:46.323Z,24.10
2022-08-29T13:02:29.109Z,24.20
2022-08-29T13:05:03.596Z,24.30
2022-08-29T13:07:38.392Z,24.30
2022-08-29T13:10:19.781Z,24.40
2022-08-29T13:12:56.761Z,24.50
2022-08-29T13:15:32.910Z,24.60
2022-08-29T13:18:07.587Z,24.70
2022-08-29T13:20:48.211Z,24.90
2022-08-29T13:23:29.161Z,25.20
2022-08-29T13:26:06.145Z,25.30
2022-08-29T13:28:43.805Z,25.30
2022-08-29T13:31:30.084Z,25.30
2022-08-29T13:34:22.670Z,25.30
2022-08-29T13:37:02.561Z,25.20
2022-08-29T13:39:41.767Z,25.10
2022-08-29T13:42:29.246Z,25.10
2022-08-29T13:45:22.391Z,25.00
2022-08-29T13:48:13.655Z,25.00
2022-08-29T13:53:26.214Z,25.00
2022-08-29T13:56:02.163Z,25.10
2022-08-29T13:58:35.570Z,25.10
2022-08-29T14:04:20.981Z,25.00
2022-08-29T14:06:56.828Z,24.90
2022-08-29T14:09:33.669Z,24.90
2022-08-29T14:12:09.325Z,25.00
2022-08-29T14:14:42.753Z,25.10
2022-08-29T14:17:18.906Z,25.20
2022-08-29T14:19:52.327Z,25.20
2022-08-29T14:22:25.832Z,25.30
2022-08-29T14:25:01.198Z,25.20
2022-08-29T14:27:36.116Z,25.20
2022-08-29T14:30:11.785Z,25.10
2022-08-29T14:32:45.236Z,25.10
2022-08-29T14:35:26.698Z,25.10
2022-08-29T14:38:02.944Z,25.10
2022-08-29T14:40:36.624Z,25.00
2022-08-29T14:43:13.158Z,25.00
2022-08-29T14:45:46.811Z,25.00
2022-08-29T14:48:20.398Z,25.10
2022-08-29T14:50:53.765Z,25.10
2022-08-29T14:53:27.277Z,25.10
2022-08-29T14:56:01.967Z,25.10
2022-08-29T14:58:36.757Z,25.10
2022-08-29T15:01:10.801Z,25.10
2022-08-29T15:03:44.262Z,25.10
2022-08-29T15:06:17.645Z,25.10
2022-08-29T15:08:51.148Z,25.00
2022-08-29T15:11:24.511Z,25.10
2022-08-29T15:14:04.342Z,25.00
2022-08-29T15:16:38.369Z,25.00
2022-08-29T15:19:53.379Z,25.00
2022-08-29T15:22:06.475Z,25.10
2022-08-29T15:24:40.486Z,25.10
2022-08-29T15:27:14.298Z,25.00
2022-08-29T15:29:49.126Z,24.90
2022-08-29T15:32:22.665Z,24.90
2022-08-29T15:34:56.116Z,24.90
2022-08-29T15:37:29.635Z,24.80
2022-08-29T15:40:03.184Z,24.80
2022-08-29T15:42:38.665Z,24.70
2022-08-29T15:45:13.520Z,24.70
2022-08-29T15:47:46.860Z,24.60
2022-08-29T15:50:20.352Z,24.60
2022-08-29T15:52:53.843Z,24.50
2022-08-29T15:55:32.096Z,24.40
2022-08-29T15:58:05.530Z,24.30
2022-08-29T16:00:40.821Z,24.20
2022-08-29T16:03:14.231Z,24.20
2022-08-29T16:05:50.409Z,24.10
2022-08-29T16:08:23.963Z,24.10
2022-08-29T16:11:04.415Z,24.00
2022-08-29T16:13:37.769Z,23.80
2022-08-29T16:16:13.535Z,23.80
2022-08-29T16:18:46.961Z,23.70
2022-08-29T16:21:21.859Z,23.60
2022-08-29T16:23:55.263Z,23.60
2022-08-29T16:26:28.845Z,23.50
2022-08-29T16:29:02.428Z,23.40
2022-08-29T16:31:37.868Z,23.30
2022-08-29T16:34:11.341Z,23.20
2022-08-29T16:36:44.863Z,23.20
2022-08-29T16:39:18.274Z,23.10
2022-08-29T16:41:51.762Z,23.10
2022-08-29T16:44:26.183Z,22.90
2022-08-29T16:47:02.105Z,22.90
2022-08-29T16:49:35.928Z,22.70
2022-08-29T16:52:09.590Z,22.60
2022-08-29T16:54:43.189Z,22.50
2022-08-29T16:57:16.522Z,22.40
2022-08-29T16:59:49.974Z,22.30
2022-08-29T17:02:24.910Z,22.20
2022-08-29T17:04:58.373Z,22.10
2022-08-29T17:07:33.530Z,22.00
2022-08-29T17:10:06.294Z,21.80
2022-08-29T17:12:38.546Z,21.70
2022-08-29T17:15:10.816Z,21.60
2022-08-29T17:17:46.093Z,21.50
2022-08-29T17:20:20.348Z,21.30
2022-08-29T17:22:54.487Z,21.20
2022-08-29T17:25:27.999Z,21.10
2022-08-29T17:28:27.835Z,21.00
2022-08-29T17:30:57.517Z,20.80
2022-08-29T17:33:33.102Z,20.60
2022-08-29T17:36:08.138Z,20.50
2022-08-29T17:38:42.730Z,20.30
2022-08-29T17:41:21.851Z,20.20
2022-08-29T17:43:55.346Z,20.10
2022-08-29T17:46:29.743Z,19.90
2022-08-29T17:49:10.299Z,19.80
2022-08-29T17:51:43.729Z,19.70
2022-08-29T17:54:27.176Z,19.50
2022-08-29T17:57:01.505Z,19.40
2022-08-29T17:59:36.707Z,19.20
2022-08-29T18:02:10.709Z,19.20
2022-08-29T18:04:45.688Z,19.10
2022-08-29T18:07:19.290Z,19.00
2022-08-29T18:09:52.716Z,18.90
2022-08-29T18:12:26.655Z,18.80
2022-08-29T18:15:00.066Z,18.70
2022-08-29T18:17:33.444Z,18.60
2022-08-29T18:20:11.637Z,18.50
2022-08-29T18:22:45.076Z,18.40
2022-08-29T18:25:22.501Z,18.30
2022-08-29T18:27:56.315Z,18.20
2022-08-29T18:30:55.840Z,18.00
2022-08-29T18:34:04.642Z,17.90
2022-08-29T18:37:09.206Z,17.80
2022-08-29T18:39:42.806Z,17.70
2022-08-29T18:42:36.763Z,17.60
2022-08-29T18:45:11.367Z,17.50
2022-08-29T18:47:44.821Z,17.40
2022-08-29T18:50:36.696Z,17.30
2022-08-29T18:53:14.633Z,17.30
2022-08-29T18:55:52.274Z,17.10
2022-08-29T18:58:29.511Z,17.10
2022-08-29T19:01:11.411Z,17.00
2022-08-29T19:03:45.231Z,17.00
2022-08-29T19:06:19.866Z,16.90
2022-08-29T19:08:55.140Z,16.80
2022-08-29T19:11:29.441Z,16.80
2022-08-29T19:14:02.830Z,16.70
2022-08-29T19:16:37.083Z,16.60
2022-08-29T19:19:13.495Z,16.50
2022-08-29T19:21:46.164Z,16.50
2022-08-29T19:24:20.850Z,16.40
2022-08-29T19:26:54.369Z,16.30
2022-08-29T19:29:28.269Z,16.30
2022-08-29T19:32:01.758Z,16.20
2022-08-29T19:34:35.485Z,16.20
2022-08-29T19:37:10.179Z,16.10
2022-08-29T19:39:45.115Z,16.00
2022-08-29T19:42:19.097Z,15.90
2022-08-29T19:44:52.543Z,15.90
2022-08-29T19:47:29.193Z,15.80
2022-08-29T19:50:03.008Z,15.70
2022-08-29T19:52:36.926Z,15.70
2022-08-29T19:55:15.146Z,15.60
2022-08-29T19:57:51.617Z,15.60
2022-08-29T20:00:26.035Z,15.50
2022-08-29T20:03:03.538Z,15.50
2022-08-29T20:05:36.937Z,15.40
2022-08-29T20:08:10.395Z,15.40
2022-08-29T20:10:49.981Z,15.30
2022-08-29T20:13:23.709Z,15.20
2022-08-29T20:15:57.172Z,15.20
2022-08-29T20:18:31.122Z,15.10
2022-08-29T20:21:04.563Z,15.10
2022-08-29T20:23:37.979Z,15.00
2022-08-29T20:26:16.893Z,15.00
2022-08-29T20:28:51.921Z,15.00
2022-08-29T20:31:25.578Z,14.90
2022-08-29T20:33:59.140Z,14.90
2022-08-29T20:36:50.077Z,14.80
2022-08-29T20:39:23.817Z,14.80
2022-08-29T20:42:00.550Z,14.70
2022-08-29T20:44:37.879Z,14.70
2022-08-29T20:47:13.653Z,14.60
2022-08-29T20:49:49.162Z,14.50
2022-08-29T20:52:24.314Z,14.50
2022-08-29T20:54:57.724Z,14.40
2022-08-29T20:57:32.527Z,14.40
2022-08-29T21:00:06.675Z,14.30
2022-08-29T21:02:57.247Z,14.30
2022-08-29T21:05:42.800Z,14.20
2022-08-29T21:08:18.124Z,14.10
2022-08-29T21:10:56.289Z,14.10
2022-08-29T21:13:31.451Z,14.10
2022-08-29T21:16:05.581Z,14.00
2022-08-29T21:18:39.264Z,13.90
2022-08-29T21:21:15.433Z,13.90
2022-08-29T21:23:49.335Z,13.80
2022-08-29T21:26:22.821Z,13.80
2022-08-29T21:28:57.575Z,13.70
2022-08-29T21:31:31.142Z,13.70
2022-08-29T21:34:07.163Z,13.70
2022-08-29T21:36:41.652Z,13.70
2022-08-29T21:39:19.658Z,13.60
2022-08-29T21:42:02.741Z,13.50
2022-08-29T21:44:38.103Z,13.50
2022-08-29T21:47:15.927Z,13.40
2022-08-29T21:49:51.815Z,13.40
2022-08-29T21:52:25.619Z,13.30
2022-08-29T21:54:59.031Z,13.30
2022-08-29T21:57:49.979Z,13.30
2022-08-29T22:00:27.675Z,13.30
2022-08-29T22:03:02.366Z,13.20
2022-08-29T22:05:38.224Z,13.10
2022-08-29T22:08:14.364Z,13.10
2022-08-29T22:10:48.052Z,13.10
2022-08-29T22:13:21.474Z,13.00
2022-08-29T22:16:13.607Z,13.00
2022-08-29T22:18:47.032Z,13.00
2022-08-29T22:21:21.059Z,12.90
2022-08-29T22:23:54.723Z,12.90
2022-08-29T22:26:28.483Z,12.80
2022-08-29T22:29:02.053Z,12.80
2022-08-29T22:31:37.066Z,12.80
2022-08-29T22:34:10.487Z,12.70
2022-08-29T22:36:44.860Z,12.70
2022-08-29T22:39:18.250Z,12.70
2022-08-29T22:41:51.807Z,12.70
2022-08-29T22:44:59.651Z,12.60
2022-08-29T22:47:20.701Z,12.60
2022-08-29T22:49:54.854Z,12.60
2022-08-29T22:52:28.336Z,12.60
2022-08-29T22:55:01.739Z,12.70
2022-08-29T22:57:35.398Z,12.70
2022-08-29T23:00:11.263Z,12.70
2022-08-29T23:02:46.206Z,12.70
2022-08-29T23:05:20.805Z,12.70
2022-08-29T23:07:54.221Z,12.60
2022-08-29T23:10:27.620Z,12.70
2022-08-29T23:13:01.104Z,12.70
2022-08-29T23:15:34.828Z,12.70
2022-08-29T23:18:10.656Z,12.80
2022-08-29T23:20:46.879Z,12.80
2022-08-29T23:23:20.442Z,12.80
2022-08-29T23:25:55.000Z,12.90
2022-08-29T23:28:28.477Z,12.90
2022-08-29T23:31:02.813Z,13.00
2022-08-29T23:33:37.702Z,13.00
2022-08-29T23:36:11.762Z,13.00
2022-08-29T23:38:45.627Z,13.10
2022-08-29T23:41:19.263Z,13.10
2022-08-29T23:43:53.040Z,13.10
2022-08-29T23:46:26.871Z,13.20
2022-08-29T23:49:01.793Z,13.20
2022-08-29T23:51:35.151Z,13.20
2022-08-29T23:54:08.949Z,13.20
2022-08-29T23:56:42.418Z,13.30
2022-08-29T23:59:35.792Z,13.30
